Tiempo atmosférico en la estación meteorológica de Brozas , Cáceres (411 m.)



Fecha
DESCASC
Temp. máxima en grados centígrados (hora)
DESCASC
Temp. mínima en grados centígrados (hora)
DESCASC
Temp. media en grados centígrados
DESCASC
Racha de viento máxima en m/sg (hora)
DESCASC
Velocidad máxima media en intervalos de 10 minutos(hora)
DESCASC
Precipitaciones diarias en mm
DESCASC
Precipitaciones de 00:00 a 06:00 en mm
DESCASC
Precipitaciones de 06:00 a 12:00 en mm
DESCASC
Precipitaciones de 12:00 a 18:00 en mm
DESCASC
Precipitaciones de 18:00 a 24:00 en mm
DESCASC
18-10-2018 21 (16:20) 11.8 (06:50) 16.4 12.22 (17:00) 8.33 (17:00) 6.2 1.8 4.4 0 0
17-10-2018 23 (16:40) 11.1 (07:10) 17.1 9.72 (18:40) 6.94 (18:40) 0 0 0 0 0
16-10-2018 20.8 (17:50) 10.5 (06:00) 15.6 7.78 (13:50) 4.72 (03:10) 0.2 0 0.2 0 0
15-10-2018 14.9 (14:50) 8.7 (03:20) 11.8 14.72 (12:40) 10.28 (11:40) 9.2 0 3 6.2 0
14-10-2018 21.6 (00:10) 9.8 (00:00) 15.7 18.89 (00:20) 13.61 (00:20) 11.4 11.4 0 0 0
13-10-2018 28.5 (16:00) 15.8 (00:00) 22.2 17.5 (23:59) 12.22 (23:50) 0 0 0 0 0
12-10-2018 24.9 (15:50) 13.7 (00:00) 19.3 6.67 (14:50) 3.89 (00:10) 0 0 0 0 0
11-10-2018 20.4 (19:00) 14.9 (06:10) 17.6 10.56 (14:20) 7.78 (14:30) 2 0.2 0.4 1.4 0
10-10-2018 23.7 (17:40) 12.8 (00:00) 18.3 10.83 (16:00) 7.22 (17:00) 0 0 0 0 0
09-10-2018 23.2 (17:00) 12.4 (08:30) 17.8 13.89 (11:00) 9.17 (11:00) 0 0 0 0 0
08-10-2018 24 (16:10) 12.1 (08:50) 18.1 12.22 (05:10) 8.06 (05:10) 0 0 0 0 0
07-10-2018 23.9 (17:30) 9.7 (08:20) 16.8 8.61 (23:10) 6.39 (11:30) 0 0 0 0 0
06-10-2018 30.3 (17:00) 14.2 (08:30) 22.2 10 (20:00) 6.67 (20:00) 0 0 0 0 0
05-10-2018 30.9 (16:10) 16.4 (06:30) 23.6 6.11 (17:30) 3.89 (03:00) 0 0 0 0 0
04-10-2018 31.2 (17:40) 15.4 (00:00) 23.3 8.61 (17:50) 5.28 (23:10) 0 0 0 0 0
03-10-2018 30.8 (17:00) 13.7 (00:00) 22.2 9.44 (11:00) 6.67 (11:00) 0 0 0 0 0
02-10-2018 28.2 (18:20) 12.2 (00:00) 20.2 10.83 (00:30) 8.06 (00:30) 0 0 0 0 0
01-10-2018 29.5 (16:50) 17.1 (00:00) 23.3 11.39 (00:50) 8.61 (00:50) 0 0 0 0 0
30-09-2018 32.3 (16:40) 17.6 (00:00) 24.9 7.5 (18:00) 4.72 (21:40) 0 0 0 0 0
29-09-2018 32.4 (16:50) 17.8 (00:00) 25.1 7.78 (17:10) 4.17 (08:00) 0 0 0 0 0
28-09-2018 31.8 (16:20) 19.5 (00:00) 25.6 7.5 (17:00) 4.44 (16:20) 0 0 0 0 0
27-09-2018 30.1 (17:10) 18.4 (00:00) 24.3 10.56 (08:00) 7.5 (08:10) 0 0 0 0 0
26-09-2018 27.8 (17:50) 20.7 (00:00) 24.3 12.78 (18:00) 8.89 (18:00) 0 0 0 0 0
25-09-2018 35.5 (17:10) 19.4 (00:00) 27.4 10 (08:50) 7.5 (08:50) 0 0 0 0 0
24-09-2018 35.8 (17:50) 21.9 (00:00) 28.8 11.67 (11:50) 8.61 (11:40) 0 0 0 0 0
23-09-2018 35.8 (16:40) 20.7 (07:30) 28.3 8.06 (17:10) 5.56 (03:30) 0 0 0 0 0
22-09-2018 35.3 (16:40) 19.2 (08:40) 27.3 7.22 (17:40) 5 (05:20) 0 0 0 0 0
21-09-2018 32.8 (16:50) 16.3 (08:10) 24.5 6.11 (22:30) 4.72 (03:50) 0 0 0 0 0
20-09-2018 34.2 (16:50) 18 (08:00) 26.1 9.17 (20:40) 6.67 (20:40) 0 0 0 0 0

Gráficas

Temp. máximas Temp. mínimas Temp. medias Precipitaciones Rachas de viento máximas Velocidades máximas media en intervalos de 10 minutos

Datos horarios

Fecha y hora oficial Temperatura (ºC) Velocidad del viento (km/h) Dirección del viento Racha (km/h) Dirección de racha Precipitación (mm) Presión (hPa) Tendencia (hPa) Humedad (%)
2018-10-19 23:00:00 15.2 20 Este 31 Este 0 -- -- 92
2018-10-19 22:00:00 15.1 15 Este 25 Este 0.2 -- -- 93
2018-10-19 21:00:00 16 15 Este 33 Este 0.4 -- -- 87
2018-10-19 20:00:00 19.2 14 Este 24 Este 0 -- -- 64
2018-10-19 19:00:00 20.2 16 Este 27 Este 0 -- -- 59
2018-10-19 18:00:00 20.6 17 Nordeste 30 Nordeste 0 -- -- 58
2018-10-19 17:00:00 21.5 22 Nordeste 40 Nordeste 0 -- -- 58
2018-10-19 16:00:00 21.1 22 Este 36 Este 0 -- -- 58
2018-10-19 15:00:00 19.9 23 Nordeste 45 Este 0 -- -- 64
2018-10-19 14:00:00 19 28 Este 47 Este 0 -- -- 69
2018-10-19 13:00:00 17.3 25 Nordeste 33 Nordeste 0 -- -- 77
2018-10-19 12:00:00 17.2 22 Este 38 Este 0 -- -- 78
2018-10-19 11:00:00 15.8 12 Este 32 Este 0 -- -- 87
2018-10-19 10:00:00 15 21 Este 32 Nordeste 0 -- -- 92
2018-10-19 09:00:00 14.4 21 Nordeste 31 Nordeste 0 -- -- 94
2018-10-19 08:00:00 14.3 15 Este 33 Nordeste 0 -- -- 92
2018-10-19 07:00:00 14.5 10 Nordeste 15 Norte 0 -- -- 89
2018-10-19 06:00:00 14.6 10 Nordeste 16 Nordeste 0 -- -- 87
2018-10-19 05:00:00 14.8 13 Nordeste 22 Nordeste 0 -- -- 88
2018-10-19 04:00:00 15.4 17 Nordeste 28 Nordeste 0 -- -- 82
2018-10-19 03:00:00 15.9 16 Nordeste 22 Nordeste 0 -- -- 78
2018-10-19 02:00:00 16.3 16 Nordeste 26 Nordeste 0 -- -- 76
2018-10-19 01:00:00 16.2 13 Nordeste 18 Nordeste 0 -- -- 76
2018-10-19 00:00:00 16.4 7 Sudeste 15 Nordeste 0 -- -- 76
2018-10-18 23:00:00 16.3 12 Norte 15 Nordeste 0 -- -- 75
2018-10-18 22:00:00 16.8 13 Nordeste 19 Nordeste 0 -- -- 70
2018-10-18 21:00:00 17 14 Nordeste 22 Nordeste 0 -- -- 68
2018-10-18 20:00:00 18.2 15 Nordeste 26 Nordeste 0 -- -- 62
2018-10-18 19:00:00 20.4 19 Nordeste 37 Nordeste 0 -- -- 58
2018-10-18 18:00:00 20.9 20 Nordeste 36 Este 0 -- -- 59
2018-10-18 17:00:00 20.9 30 Nordeste 44 Nordeste 0 -- -- 59
2018-10-18 16:00:00 19.9 25 Nordeste 37 Este 0 -- -- 62
2018-10-18 15:00:00 17.7 25 Nordeste 38 Nordeste 0 -- -- 71
2018-10-18 14:00:00 18.1 21 Nordeste 35 Nordeste 0 -- -- 75
2018-10-18 13:00:00 15.6 20 Nordeste 40 Este 0 -- -- 87
2018-10-18 12:00:00 15 27 Nordeste 41 Nordeste 0 -- -- 89
2018-10-18 11:00:00 13.4 21 Nordeste 30 Nordeste 0 -- -- 98
2018-10-18 10:00:00 12.8 10 Norte 15 Nordeste 0.6 -- -- 99
2018-10-18 09:00:00 12.5 15 Nordeste 34 Nordeste 1.8 -- -- 99
2018-10-18 08:00:00 12.1 13 Nordeste 19 Nordeste 1.4 -- -- 99
2018-10-18 07:00:00 11.9 11 Norte 18 Norte 0.6 -- -- 98
2018-10-18 06:00:00 11.9 8 Noroeste 15 Oeste 0.8 -- -- 98
2018-10-18 05:00:00 11.9 12 Noroeste 17 Noroeste 0.8 -- -- 97
2018-10-18 04:00:00 12.3 13 Noroeste 19 Oeste 0 -- -- 96
2018-10-18 03:00:00 12.4 10 Noroeste 14 Oeste 0 -- -- 95
2018-10-18 02:00:00 12.6 11 Noroeste 24 Oeste 0.2 -- -- 93
2018-10-18 01:00:00 13.4 17 Oeste 23 Oeste 0 -- -- 88
2018-10-18 00:00:00 14 11 Oeste 20 Oeste 0 -- -- 87
2018-10-17 23:00:00 14.7 15 Noroeste 22 Oeste 0 -- -- 82
2018-10-17 22:00:00 15.7 19 Noroeste 27 Noroeste 0 -- -- 80
2018-10-17 21:00:00 17.2 13 Oeste 21 Oeste 0 -- -- 70
2018-10-17 20:00:00 18.6 14 Oeste 26 Oeste 0 -- -- 63
2018-10-17 19:00:00 19.6 19 Oeste 35 Oeste 0 -- -- 57
2018-10-17 18:00:00 21.2 19 Oeste 30 Oeste 0 -- -- 52
2018-10-17 17:00:00 22 15 Oeste 27 Oeste 0 -- -- 50
2018-10-17 16:00:00 21.8 12 Oeste 24 Sudoeste 0 -- -- 51
2018-10-17 15:00:00 22.1 13 Oeste 24 Oeste 0 -- -- 50
2018-10-17 14:00:00 21.2 9 Sudoeste 19 Sudoeste 0 -- -- 52
2018-10-17 13:00:00 19.8 5 Sudoeste 11 Sudoeste 0 -- -- 59
2018-10-17 12:00:00 18.1 5 Oeste 12 Sudoeste 0 -- -- 68
2018-10-17 11:00:00 16.3 4 Sur 6 Sur 0 -- -- 78
2018-10-17 10:00:00 12.3 4 Noroeste 9 Noroeste 0 -- -- 89
2018-10-17 09:00:00 11.6 7 Noroeste 9 Noroeste 0 -- -- 88
2018-10-17 08:00:00 12.3 0 Calma 8 Noroeste 0 -- -- 85
2018-10-17 07:00:00 11.3 6 Noroeste 9 Noroeste 0 -- -- 90
2018-10-17 06:00:00 11.3 8 Noroeste 12 Noroeste 0 -- -- 90
2018-10-17 05:00:00 11.9 6 Noroeste 11 Noroeste 0 -- -- 89
2018-10-17 04:00:00 12 8 Norte 13 Noroeste 0 -- -- 87
2018-10-17 03:00:00 11.9 11 Norte 17 Nordeste 0 -- -- 86
2018-10-17 02:00:00 13.4 14 Nordeste 17 Nordeste 0 -- -- 79
2018-10-17 01:00:00 13.7 15 Nordeste 17 Nordeste 0 -- -- 79
2018-10-17 00:00:00 13.3 13 Norte 15 Norte 0 -- -- 81
2018-10-16 23:00:00 13.8 9 Norte 14 Nordeste 0 -- -- 80
2018-10-16 22:00:00 17.2 5 Norte -- -- 0 -- -- 62
2018-10-16 21:00:00 17.3 4 Norte 6 Nordeste 0 -- -- 62
2018-10-16 20:00:00 17.9 5 Norte 13 Norte 0 -- -- 62
2018-10-16 19:00:00 19.7 11 Nordeste 18 Norte 0 -- -- 56
2018-10-16 18:00:00 20.8 11 Nordeste 18 Norte 0 -- -- 55
2018-10-16 17:00:00 19.3 9 Nordeste 22 Nordeste 0 -- -- 61
2018-10-16 16:00:00 19.5 9 Nordeste 23 Nordeste 0 -- -- 59
2018-10-16 15:00:00 18.9 15 Nordeste 26 Este 0 -- -- 62
2018-10-16 14:00:00 18.5 12 Nordeste 28 Nordeste 0 -- -- 65
2018-10-16 13:00:00 17.3 16 Nordeste 26 Este 0 -- -- 73
2018-10-16 12:00:00 15.8 13 Nordeste 20 Nordeste 0 -- -- 80
2018-10-16 11:00:00 14.2 12 Nordeste 18 Nordeste 0 -- -- 93
2018-10-16 10:00:00 12.3 9 Norte 13 Norte 0.2 -- -- 100
2018-10-16 09:00:00 10.9 7 Nordeste 12 Este 0 -- -- 100
2018-10-16 08:00:00 10.9 8 Nordeste 13 Nordeste 0 -- -- 100
2018-10-16 07:00:00 11 9 Nordeste 11 Nordeste 0 -- -- 99
2018-10-16 06:00:00 10.5 5 Noroeste 16 Este 0 -- -- 98
2018-10-16 05:00:00 11.3 13 Este 18 Este 0 -- -- 99
2018-10-16 04:00:00 11.6 12 Este 24 Este 0 -- -- 99
2018-10-16 03:00:00 11.6 15 Nordeste 20 Nordeste 0 -- -- 99
2018-10-16 02:00:00 11.7 15 Nordeste 23 Este 0 -- -- 98
2018-10-16 01:00:00 12.2 15 Nordeste 21 Este 0 -- -- 98
2018-10-16 00:00:00 12.5 15 Nordeste 24 Este 0 -- -- 98
2018-10-15 23:00:00 12.5 16 Este 23 Este 0 -- -- 98
2018-10-15 22:00:00 12.5 16 Este 25 Nordeste 0 -- -- 98
2018-10-15 21:00:00 12.4 17 Este 24 Este 0 -- -- 98
2018-10-15 20:00:00 12.8 17 Este 24 Este 0 -- -- 97
2018-10-15 19:00:00 13.8 12 Este 19 Nordeste 0 -- -- 96
2018-10-15 18:00:00 13.8 13 Sudeste 23 Este 0 -- -- 95
2018-10-15 17:00:00 14.1 13 Sudeste 21 Sudeste 0 -- -- 95
2018-10-15 16:00:00 14.2 11 Sudeste 18 Sudeste 0.2 -- -- 95
2018-10-15 15:00:00 14.8 12 Sur 26 Sur 0 -- -- 95
2018-10-15 14:00:00 13.1 19 Sur 23 Sur 0.2 -- -- 97
2018-10-15 13:00:00 12.6 11 Oeste 53 Sur 5.8 -- -- 99
2018-10-15 12:00:00 11.5 35 Sur 50 Sur 0.2 -- -- 97
2018-10-15 11:00:00 10.8 27 Sur 39 Sur 1.8 -- -- 98
2018-10-15 10:00:00 10.4 26 Sur 37 Sur 1 -- -- 97
2018-10-15 09:00:00 10.7 27 Sur 34 Sur 0 -- -- 87
2018-10-15 08:00:00 10.7 19 Sur 24 Sur 0 -- -- 87
2018-10-15 07:00:00 10.4 11 Sur 17 Sudoeste 0 -- -- 87
2018-10-15 06:00:00 9.9 13 Sudoeste 25 Oeste 0 -- -- 88
2018-10-15 05:00:00 10.6 17 Oeste 28 Oeste 0 -- -- 84
2018-10-15 04:00:00 9.7 13 Oeste 20 Oeste 0 -- -- 87
2018-10-15 03:00:00 9 11 Oeste 18 Oeste 0 -- -- 88
2018-10-15 02:00:00 9.5 9 Oeste 24 Noroeste 0 -- -- 86
2018-10-15 01:00:00 10 21 Oeste 27 Oeste 0 -- -- 85
2018-10-15 00:00:00 10.5 10 Oeste 25 Oeste 0 -- -- 80
2018-10-14 23:00:00 11.4 21 Noroeste 35 Noroeste 0 -- -- 76
2018-10-14 22:00:00 12 18 Oeste 32 Noroeste 0 -- -- 74
2018-10-14 21:00:00 12.9 23 Noroeste 33 Noroeste 0 -- -- 69
2018-10-14 20:00:00 14.4 26 Noroeste 36 Noroeste 0 -- -- 63
2018-10-14 19:00:00 16.7 27 Noroeste 44 Noroeste 0 -- -- 51
2018-10-14 18:00:00 16.9 33 Noroeste 44 Oeste 0 -- -- 49
2018-10-14 17:00:00 17.9 29 Noroeste 45 Noroeste 0 -- -- 46
2018-10-14 16:00:00 18.2 33 Noroeste 52 Noroeste 0 -- -- 47
2018-10-14 15:00:00 17.6 36 Noroeste 50 Noroeste 0 -- -- 50
2018-10-14 14:00:00 16.7 37 Noroeste 50 Noroeste 0 -- -- 52
2018-10-14 13:00:00 15.7 28 Noroeste 43 Noroeste 0 -- -- 55
2018-10-14 12:00:00 14.4 29 Noroeste 42 Noroeste 0 -- -- 65
2018-10-14 11:00:00 13.1 26 Noroeste 41 Noroeste 0 -- -- 73
2018-10-14 10:00:00 11.2 26 Noroeste 37 Noroeste 0 -- -- 82
2018-10-14 09:00:00 9.8 20 Noroeste 37 Noroeste 0 -- -- 84
2018-10-14 08:00:00 10.2 24 Noroeste 45 Oeste 0 -- -- 82
2018-10-14 07:00:00 11.2 28 Oeste 49 Oeste 0 -- -- 87
2018-10-14 06:00:00 12 30 Oeste 44 Oeste 0 -- -- 91
2018-10-14 05:00:00 12.5 29 Oeste 40 Oeste 0 -- -- 94
2018-10-14 04:00:00 13.5 20 Oeste 30 Oeste 0 -- -- 91
2018-10-14 03:00:00 14.5 17 Oeste 34 Oeste 1 -- -- 94
2018-10-14 02:00:00 16.5 17 Sudoeste 52 Sudoeste 9.4 -- -- 96
2018-10-14 01:00:00 18.1 41 Sur 68 Sur 1 -- -- 79
2018-10-14 00:00:00 21.5 44 Sur 63 Sur 0 -- -- 56
2018-10-13 23:00:00 22.5 28 Sur 42 Sur 0 -- -- 51
2018-10-13 22:00:00 23.6 26 Sur 36 Sur 0 -- -- 47
2018-10-13 21:00:00 22.8 19 Sur 29 Sur 0 -- -- 49
2018-10-13 20:00:00 24.5 23 Sur 30 Sur 0 -- -- 44
2018-10-13 19:00:00 26.8 22 Sur 37 Sudoeste 0 -- -- 38
2018-10-13 18:00:00 27.7 23 Sur 40 Sur 0 -- -- 38
2018-10-13 17:00:00 27.7 27 Sur 42 Sur 0 -- -- 34
2018-10-13 16:00:00 28.5 23 Sudeste 36 Sudeste 0 -- -- 37
2018-10-13 15:00:00 27.3 20 Sur 35 Sur 0 -- -- 43
2018-10-13 14:00:00 26.5 21 Sudeste 34 Sur 0 -- -- 49
2018-10-13 13:00:00 26 19 Sudeste 33 Sur 0 -- -- 51
2018-10-13 12:00:00 23.5 15 Sudeste 27 Sudeste 0 -- -- 62
2018-10-13 11:00:00 21.3 16 Sudeste 22 Sudeste 0 -- -- 74
2018-10-13 10:00:00 17.1 7 Sudeste 15 Este 0 -- -- 92
2018-10-13 09:00:00 15.8 8 Este 15 Este 0 -- -- 92
2018-10-13 08:00:00 16 9 Este 15 Este 0 -- -- 91
2018-10-13 07:00:00 16.8 10 Este 15 Sudeste 0 -- -- 90
2018-10-13 06:00:00 17.1 6 Este 21 Sudeste 0 -- -- 88
2018-10-13 05:00:00 17 13 Sudeste 19 Sudeste 0 -- -- 87
2018-10-13 04:00:00 17.5 11 Sudeste 15 Sudeste 0 -- -- 85
2018-10-13 03:00:00 17.4 8 Sudeste 17 Sudeste 0 -- -- 85
2018-10-13 02:00:00 17.3 12 Sudeste 18 Sudeste 0 -- -- 85
2018-10-13 01:00:00 18 11 Sudeste 20 Sudeste 0 -- -- 77
2018-10-13 00:00:00 19 9 Sudeste 11 Sudeste 0 -- -- 63
2018-10-12 23:00:00 19.4 5 Sudeste 8 Sur 0 -- -- 60
2018-10-12 22:00:00 19.5 6 Sur 10 Sur 0 -- -- 61
2018-10-12 21:00:00 20.1 8 Sur 11 Sur 0 -- -- 60
2018-10-12 20:00:00 21.5 7 Sur 12 Sur 0 -- -- 56
2018-10-12 19:00:00 23.5 8 Sur 15 Sudoeste 0 -- -- 49
2018-10-12 18:00:00 24.6 8 Sudoeste 17 Sudoeste 0 -- -- 45
2018-10-12 17:00:00 24.6 9 Oeste 24 Sudoeste 0 -- -- 45
2018-10-12 16:00:00 24.9 14 Sudoeste 23 Sur 0 -- -- 44
2018-10-12 15:00:00 24 9 Sur 24 Sudeste 0 -- -- 50
2018-10-12 14:00:00 23 8 Sur 24 Sur 0 -- -- 56
2018-10-12 13:00:00 22 12 Sur 20 Sudoeste 0 -- -- 60
2018-10-12 12:00:00 20.1 6 Sur 12 Sudeste 0 -- -- 66
2018-10-12 11:00:00 18.2 6 Sudoeste 11 Sur 0 -- -- 67
2018-10-12 10:00:00 15.4 4 Sudeste 9 Sur 0 -- -- 81
2018-10-12 09:00:00 14.2 6 Sudeste 8 Sur 0 -- -- 82
2018-10-12 08:00:00 14.2 5 Sur 8 Sudeste 0 -- -- 80
2018-10-12 07:00:00 14.1 4 Sur 8 Sur 0 -- -- 79
2018-10-12 06:00:00 13.7 7 Sur 10 Sur 0 -- -- 86
2018-10-12 05:00:00 14 7 Sur 11 Sur 0 -- -- 89
2018-10-12 04:00:00 14.3 6 Sur 8 Sur 0 -- -- 89
2018-10-12 03:00:00 14.8 6 Sudoeste 8 Sudoeste 0 -- -- 84
2018-10-12 02:00:00 15.2 6 Sudoeste 14 Sudoeste 0 -- -- 83
2018-10-12 01:00:00 15.6 11 Sudoeste 18 Sudoeste 0 -- -- 82
2018-10-12 00:00:00 16.7 13 Sudoeste 18 Sudoeste 0 -- -- 86
2018-10-11 23:00:00 17.1 7 Sudeste 8 Sudeste 0 -- -- 91
2018-10-11 22:00:00 17.2 5 Sur 8 Sur 0 -- -- 87
2018-10-11 21:00:00 17.8 7 Sudoeste 16 Oeste 0 -- -- 73
2018-10-11 20:00:00 18.4 12 Oeste 24 Oeste 0 -- -- 70
2018-10-11 19:00:00 20.4 15 Oeste 25 Sudoeste 0 -- -- 70
2018-10-11 18:00:00 20.2 10 Sudoeste 21 Sudoeste 0 -- -- 82
2018-10-11 17:00:00 18.3 18 Oeste 35 Sudoeste 0.6 -- -- 93
2018-10-11 16:00:00 18.9 26 Sur 33 Sur 0 -- -- 89
2018-10-11 15:00:00 17.4 21 Sur 38 Sur 0 -- -- 96
2018-10-11 14:00:00 17.3 25 Sur 36 Sur 0.2 -- -- 94
2018-10-11 13:00:00 16.9 23 Sur 31 Sur 0.6 -- -- 95
2018-10-11 12:00:00 17.3 18 Sudoeste 31 Sudoeste 0 -- -- 90
2018-10-11 11:00:00 17.7 22 Sur 30 Sur 0 -- -- 86
2018-10-11 10:00:00 16.1 16 Sur 26 Sur 0 -- -- 97
2018-10-11 09:00:00 15.5 9 Sur 15 Sudoeste 0 -- -- 97
2018-10-11 08:00:00 15.5 12 Sur 19 Sur 0 -- -- 97
2018-10-11 07:00:00 15.3 10 Sur 18 Sur 0.4 -- -- 96
2018-10-11 06:00:00 15 13 Sur 19 Sur 0 -- -- 92
2018-10-11 05:00:00 15.2 10 Sudoeste 20 Sur 0.2 -- -- 87
2018-10-11 04:00:00 15.5 8 Sur 13 Sudeste 0 -- -- 76
2018-10-11 03:00:00 16.3 8 Sudeste 11 Sudeste 0 -- -- 71
2018-10-11 02:00:00 16.4 0 Calma 9 Oeste 0 -- -- 71
2018-10-11 01:00:00 16.5 7 Oeste 18 Oeste 0 -- -- 71
2018-10-11 00:00:00 18 13 Oeste 17 Oeste 0 -- -- 61
2018-10-10 23:00:00 18.4 11 Sudoeste 14 Sudoeste 0 -- -- 60
2018-10-10 22:00:00 18 10 Sur 17 Sur 0 -- -- 60
2018-10-10 21:00:00 18.6 13 Sur 18 Sur 0 -- -- 58
2018-10-10 20:00:00 20.3 16 Sur 26 Sur 0 -- -- 49
2018-10-10 19:00:00 22.2 22 Sudoeste 36 Sur 0 -- -- 46
2018-10-10 18:00:00 23 23 Sudoeste 36 Sudoeste 0 -- -- 42
2018-10-10 17:00:00 23 26 Sur 35 Sur 0 -- -- 42
2018-10-10 16:00:00 23 19 Sur 39 Sur 0 -- -- 44
2018-10-10 15:00:00 21.2 18 Sudoeste 28 Sur 0 -- -- 54
2018-10-10 14:00:00 19.8 15 Sur 23 Sur 0 -- -- 60
2018-10-10 13:00:00 18.7 11 Sur 21 Sur 0 -- -- 68
2018-10-10 12:00:00 15.9 12 Sur 21 Sudeste -- -- -- 79
2018-10-10 11:00:00 15.8 18 Sur 25 Sur -- -- -- 79
2018-10-10 10:00:00 14.9 12 Sudeste 18 Sudeste 0 -- -- 79
2018-10-10 09:00:00 13 9 Este 14 Este 0 -- -- 79
2018-10-10 08:00:00 13.3 9 Sudeste 15 Sudeste 0 -- -- 77
2018-10-10 07:00:00 13.4 10 Sudeste 19 Sudeste 0 -- -- 72
2018-10-10 06:00:00 13.7 10 Sudeste 26 Este 0 -- -- 69
2018-10-10 05:00:00 14.4 11 Este 26 Este 0 -- -- 66
2018-10-10 04:00:00 14.6 11 Este 32 Este 0 -- -- 63
2018-10-10 03:00:00 15.1 15 Este 33 Este 0 -- -- 57
2018-10-10 02:00:00 15.5 20 Este 32 Este 0 -- -- 53
2018-10-10 01:00:00 16.2 18 Este 24 Este 0 -- -- 46
2018-10-10 00:00:00 16.4 17 Este 24 Este 0 -- -- 45
2018-10-09 23:00:00 17.1 16 Este 26 Este 0 -- -- 43
2018-10-09 22:00:00 17.3 17 Este 22 Este 0 -- -- 43
2018-10-09 21:00:00 17.7 14 Nordeste 16 Nordeste 0 -- -- 40
2018-10-09 20:00:00 19.5 9 Nordeste 16 Nordeste 0 -- -- 36
2018-10-09 19:00:00 22.1 9 Nordeste 20 Este 0 -- -- 32
2018-10-09 18:00:00 22.7 14 Nordeste 23 Este 0 -- -- 32
2018-10-09 17:00:00 23.2 10 Nordeste 31 Este 0 -- -- 30
2018-10-09 16:00:00 22.8 10 Nordeste 29 Este 0 -- -- 31
2018-10-09 15:00:00 22.6 15 Este 34 Este 0 -- -- 32
2018-10-09 14:00:00 22.3 18 Este 37 Este 0 -- -- 33
2018-10-09 13:00:00 21.1 23 Este 44 Nordeste 0 -- -- 37
2018-10-09 12:00:00 19.4 22 Este 44 Este 0 -- -- 43
2018-10-09 11:00:00 17.2 33 Este 50 Este 0 -- -- 51
2018-10-09 10:00:00 14.5 27 Este 39 Este 0 -- -- 59
2018-10-09 09:00:00 12.7 28 Este 39 Nordeste 0 -- -- 62
2018-10-09 08:00:00 12.6 23 Nordeste 39 Este 0 -- -- 55
2018-10-09 07:00:00 13.4 20 Este 33 Este 0 -- -- 52
2018-10-09 06:00:00 13.2 20 Este 30 Este 0 -- -- 52
2018-10-09 05:00:00 13.9 22 Este 31 Este 0 -- -- 51
2018-10-09 04:00:00 13.8 19 Nordeste 29 Nordeste 0 -- -- 53
2018-10-09 03:00:00 14 19 Nordeste 24 Nordeste 0 -- -- 52
2018-10-09 02:00:00 14.4 18 Nordeste 24 Nordeste 0 -- -- 50
2018-10-09 01:00:00 15.1 17 Nordeste 21 Nordeste 0 -- -- 48
2018-10-09 00:00:00 15.3 15 Nordeste 22 Nordeste 0 -- -- 47
2018-10-08 23:00:00 16.8 18 Nordeste 24 Nordeste 0 -- -- 43
2018-10-08 22:00:00 17.2 17 Nordeste 20 Nordeste 0 -- -- 42
2018-10-08 21:00:00 17.7 13 Nordeste 17 Nordeste 0 -- -- 38
2018-10-08 20:00:00 20.2 10 Este 18 Este 0 -- -- 32
2018-10-08 19:00:00 22.7 13 Este 23 Este 0 -- -- 27
2018-10-08 18:00:00 23.6 12 Este 26 Nordeste 0 -- -- 26
2018-10-08 17:00:00 23.6 16 Nordeste 30 Este 0 -- -- 27
2018-10-08 16:00:00 23.4 16 Este 30 Este 0 -- -- 28
2018-10-08 15:00:00 23.2 18 Este 31 Nordeste 0 -- -- 27
2018-10-08 14:00:00 22.2 18 Este 33 Este 0 -- -- 30
2018-10-08 13:00:00 21.1 18 Este 32 Este 0 -- -- 31
2018-10-08 12:00:00 19.3 16 Este 34 Este 0 -- -- 35
2018-10-08 11:00:00 16.7 23 Este 34 Este 0 -- -- 41
2018-10-08 10:00:00 13.9 15 Este 31 Este 0 -- -- 48
2018-10-08 09:00:00 12.2 18 Este 36 Nordeste 0 -- -- 52
2018-10-08 08:00:00 12.7 26 Este 40 Este 0 -- -- 50
2018-10-08 07:00:00 12.9 28 Nordeste 39 Este 0 -- -- 48
2018-10-08 06:00:00 13.5 27 Este 44 Este 0 -- -- 46
2018-10-08 05:00:00 13.9 27 Este 40 Este 0 -- -- 43
2018-10-08 04:00:00 13.9 25 Nordeste 32 Este 0 -- -- 42
2018-10-08 03:00:00 13.2 20 Nordeste 27 Nordeste 0 -- -- 43
2018-10-08 02:00:00 13.4 19 Nordeste 23 Nordeste 0 -- -- 44
2018-10-08 01:00:00 14.4 17 Nordeste 25 Nordeste 0 -- -- 42
2018-10-08 00:00:00 15.5 19 Nordeste 31 Nordeste 0 -- -- 39
2018-10-07 23:00:00 16.4 20 Nordeste 29 Nordeste 0 -- -- 37
2018-10-07 22:00:00 17 17 Nordeste 27 Nordeste 0 -- -- 35
2018-10-07 21:00:00 17.9 9 Norte 13 Norte 0 -- -- 35
2018-10-07 20:00:00 19.5 11 Norte 17 Norte 0 -- -- 33
2018-10-07 19:00:00 22.5 14 Norte 20 Norte 0 -- -- 30
2018-10-07 18:00:00 23.5 11 Norte 19 Nordeste 0 -- -- 30
2018-10-07 17:00:00 23.5 11 Norte 22 Norte 0 -- -- 29
2018-10-07 16:00:00 22.7 14 Nordeste 27 Nordeste 0 -- -- 31
2018-10-07 15:00:00 21.8 14 Nordeste 29 Norte 0 -- -- 33
2018-10-07 14:00:00 20.8 15 Nordeste 30 Norte 0 -- -- 35
2018-10-07 13:00:00 19.5 18 Nordeste 31 Nordeste 0 -- -- 36
2018-10-07 12:00:00 17.4 18 Norte 30 Nordeste 0 -- -- 38
2018-10-07 11:00:00 14.9 18 Nordeste 31 Nordeste 0 -- -- 44
2018-10-07 10:00:00 12.7 14 Norte 22 Norte 0 -- -- 53
2018-10-07 09:00:00 10.2 14 Norte 22 Norte 0 -- -- 61
2018-10-07 08:00:00 10.1 14 Norte 20 Norte 0 -- -- 65
2018-10-07 07:00:00 11.3 15 Norte 23 Norte 0 -- -- 62
2018-10-07 06:00:00 12.4 16 Norte 24 Norte 0 -- -- 62
2018-10-07 05:00:00 12.7 16 Norte 22 Norte 0 -- -- 68
2018-10-07 04:00:00 13.4 17 Norte 21 Norte 0 -- -- 67
2018-10-07 03:00:00 14.7 16 Norte 19 Norte 0 -- -- 64
2018-10-07 02:00:00 14.5 14 Norte 18 Noroeste 0 -- -- 60
2018-10-07 01:00:00 16.7 13 Noroeste 18 Noroeste 0 -- -- 55
2018-10-07 00:00:00 17.3 18 Noroeste 20 Noroeste 0 -- -- 48
2018-10-06 23:00:00 18.2 17 Noroeste 20 Noroeste 0 -- -- 43
2018-10-06 22:00:00 20 18 Noroeste 22 Noroeste 0 -- -- 38
2018-10-06 21:00:00 22.9 18 Noroeste 30 Noroeste 0 -- -- 32
2018-10-06 20:00:00 25.8 24 Noroeste 36 Noroeste 0 -- -- 28
2018-10-06 19:00:00 28.7 19 Oeste 34 Oeste 0 -- -- 22
2018-10-06 18:00:00 29.9 18 Oeste 34 Oeste 0 -- -- 21
2018-10-06 17:00:00 30.3 13 Oeste 27 Oeste 0 -- -- 22
2018-10-06 16:00:00 29.5 12 Noroeste 25 Oeste 0 -- -- 22
2018-10-06 15:00:00 29.2 12 Oeste 22 Sudoeste 0 -- -- 22
2018-10-06 14:00:00 28.1 12 Sudoeste 23 Sudoeste 0 -- -- 23
2018-10-06 13:00:00 26.2 9 Oeste 18 Oeste 0 -- -- 26
2018-10-06 12:00:00 24.1 11 Sudoeste 17 Sur 0 -- -- 32
2018-10-06 11:00:00 21.3 10 Sur 15 Sur 0 -- -- 35
2018-10-06 10:00:00 16.5 9 Sur 13 Sur 0 -- -- 43
2018-10-06 09:00:00 14.9 6 Sur 12 Sudeste 0 -- -- 46
2018-10-06 08:00:00 15.4 9 Norte 10 Norte 0 -- -- 44
2018-10-06 07:00:00 18.5 2 Sudoeste 7 Sur 0 -- -- 38
2018-10-06 06:00:00 18.6 5 Sur 9 Sur 0 -- -- 37
2018-10-06 05:00:00 17.9 8 Sur 13 Sur 0 -- -- 38
2018-10-06 04:00:00 18.7 3 Oeste 10 Sudeste 0 -- -- 36
2018-10-06 03:00:00 19.3 3 Este 17 Nordeste 0 -- -- 35
2018-10-06 02:00:00 19.4 13 Nordeste 15 Nordeste 0 -- -- 35
2018-10-06 01:00:00 21.1 9 Norte 13 Noroeste 0 -- -- 32
2018-10-06 00:00:00 21.4 12 Noroeste 14 Noroeste 0 -- -- 31
2018-10-05 23:00:00 24.3 9 Oeste 10 Oeste 0 -- -- 26
2018-10-05 22:00:00 24.2 6 Sur 10 Sur 0 -- -- 26
2018-10-05 21:00:00 25.2 8 Sudoeste 11 Sur 0 -- -- 25
2018-10-05 20:00:00 27.5 0 Calma 10 Oeste 0 -- -- 22
2018-10-05 19:00:00 29.8 8 Sudoeste 18 Oeste 0 -- -- 20
2018-10-05 18:00:00 30.6 4 Sudoeste 22 Oeste 0 -- -- 19
2018-10-05 17:00:00 30.6 10 Oeste 22 Oeste 0 -- -- 19
2018-10-05 16:00:00 30.4 9 Sudoeste 21 Oeste 0 -- -- 20
2018-10-05 15:00:00 29.8 11 Oeste 19 Oeste 0 -- -- 20
2018-10-05 14:00:00 29 6 Noroeste 17 Sudoeste 0 -- -- 20
2018-10-05 13:00:00 27.9 6 Sudoeste 12 Sudoeste 0 -- -- 24
2018-10-05 12:00:00 25.3 4 Este 10 Este 0 -- -- 28
2018-10-05 11:00:00 22.4 5 Este 15 Nordeste 0 -- -- 33
2018-10-05 10:00:00 19.8 8 Nordeste 12 Nordeste 0 -- -- 39
2018-10-05 09:00:00 17.6 2 Oeste 4 Sudoeste 0 -- -- 42
2018-10-05 08:00:00 17.5 4 Sudoeste 6 Sudoeste 0 -- -- 43
2018-10-05 07:00:00 17 5 Sudoeste 11 Sudoeste 0 -- -- 44
2018-10-05 06:00:00 17.5 5 Sudoeste 10 Noroeste 0 -- -- 43
2018-10-05 05:00:00 17.8 10 Norte 13 Noroeste 0 -- -- 43
2018-10-05 04:00:00 18.5 10 Noroeste 15 Norte 0 -- -- 40
2018-10-05 03:00:00 18.6 14 Norte 16 Noroeste 0 -- -- 39
2018-10-05 02:00:00 19 12 Noroeste 14 Noroeste 0 -- -- 39
2018-10-05 01:00:00 20.1 9 Oeste 14 Noroeste 0 -- -- 36
2018-10-05 00:00:00 20.8 12 Noroeste 23 Oeste 0 -- -- 32
2018-10-04 23:00:00 23 17 Oeste 23 Oeste 0 -- -- 28
2018-10-04 22:00:00 25.1 14 Oeste 19 Oeste 0 -- -- 21
2018-10-04 21:00:00 26.4 4 Oeste 7 Noroeste 0 -- -- 19
2018-10-04 20:00:00 27.5 7 Noroeste 18 Oeste 0 -- -- 18
2018-10-04 19:00:00 30.5 13 Oeste 20 Noroeste 0 -- -- 17
2018-10-04 18:00:00 30.8 6 Noroeste 31 Oeste 0 -- -- 18
2018-10-04 17:00:00 30.9 8 Sudoeste 21 Noroeste 0 -- -- 19
2018-10-04 16:00:00 30.4 13 Oeste 20 Noroeste 0 -- -- 19
2018-10-04 15:00:00 30.1 9 Oeste 20 Noroeste 0 -- -- 22
2018-10-04 14:00:00 29.2 7 Oeste 15 Oeste 0 -- -- 23
2018-10-04 13:00:00 27.4 7 Oeste 14 Oeste 0 -- -- 26
2018-10-04 12:00:00 26 3 Noroeste 9 Norte 0 -- -- 28
2018-10-04 11:00:00 23.9 2 Este 12 Nordeste 0 -- -- 30
2018-10-04 10:00:00 18.9 9 Nordeste 15 Nordeste 0 -- -- 41
2018-10-04 09:00:00 15.5 10 Nordeste 13 Nordeste 0 -- -- 49
2018-10-04 08:00:00 16.3 4 Norte 10 Norte 0 -- -- 46
2018-10-04 07:00:00 16.5 8 Norte 16 Nordeste 0 -- -- 44
2018-10-04 06:00:00 17.5 13 Nordeste 15 Nordeste 0 -- -- 42
2018-10-04 05:00:00 16 10 Norte 21 Nordeste 0 -- -- 42
2018-10-04 04:00:00 18.6 13 Nordeste 22 Nordeste 0 -- -- 38
2018-10-04 03:00:00 20.3 17 Nordeste 20 Nordeste 0 -- -- 33
2018-10-04 02:00:00 20.9 10 Nordeste 18 Nordeste 0 -- -- 28
2018-10-04 01:00:00 22.3 10 Norte 13 Nordeste 0 -- -- 23
2018-10-04 00:00:00 23.4 10 Noroeste 12 Noroeste 0 -- -- 22
2018-10-03 23:00:00 24.9 7 Noroeste 8 Noroeste 0 -- -- 20
2018-10-03 22:00:00 25.4 5 Oeste 7 Oeste 0 -- -- 20
2018-10-03 21:00:00 26 0 Calma 5 Noroeste 0 -- -- 19
2018-10-03 20:00:00 28 4 Noroeste 13 Noroeste 0 -- -- 18
2018-10-03 19:00:00 29.7 6 Norte 15 Nordeste 0 -- -- 17
2018-10-03 18:00:00 30.1 12 Norte 22 Norte 0 -- -- 16
2018-10-03 17:00:00 30.8 9 Norte 18 Norte 0 -- -- 15
2018-10-03 16:00:00 30.5 6 Este 14 Este 0 -- -- 15
2018-10-03 15:00:00 29.6 5 Nordeste 12 Norte 0 -- -- 16
2018-10-03 14:00:00 28.2 7 Sur 19 Este 0 -- -- 18
2018-10-03 13:00:00 26.4 10 Este 23 Este 0 -- -- 20
2018-10-03 12:00:00 24.1 15 Este 29 Este 0 -- -- 23
2018-10-03 11:00:00 21.5 24 Este 34 Este 0 -- -- 26
2018-10-03 10:00:00 17.3 21 Nordeste 28 Nordeste 0 -- -- 31
2018-10-03 09:00:00 14 10 Este 20 Este 0 -- -- 37
2018-10-03 08:00:00 14.9 18 Nordeste 21 Nordeste 0 -- -- 34
2018-10-03 07:00:00 14.6 18 Nordeste 21 Nordeste 0 -- -- 34
2018-10-03 06:00:00 14.5 13 Nordeste 14 Nordeste 0 -- -- 38
2018-10-03 05:00:00 14.5 4 Nordeste 18 Nordeste 0 -- -- 36
2018-10-03 04:00:00 16 15 Nordeste 18 Nordeste 0 -- -- 34
2018-10-03 03:00:00 17.5 17 Nordeste 20 Nordeste 0 -- -- 31
2018-10-03 02:00:00 17 15 Nordeste 18 Nordeste 0 -- -- 30
2018-10-03 01:00:00 17.4 15 Nordeste 17 Nordeste 0 -- -- 28
2018-10-03 00:00:00 18.8 14 Nordeste 22 Nordeste 0 -- -- 25
2018-10-02 23:00:00 20.1 16 Nordeste 23 Nordeste 0 -- -- 20
2018-10-02 22:00:00 21.4 14 Nordeste 15 Nordeste 0 -- -- 16
2018-10-02 21:00:00 21.9 12 Nordeste 13 Nordeste 0 -- -- 14
2018-10-02 20:00:00 24.9 6 Nordeste 15 Este 0 -- -- 11
2018-10-02 19:00:00 27.3 11 Este 16 Este 0 -- -- 11
2018-10-02 18:00:00 28.1 5 Nordeste 23 Nordeste 0 -- -- 8
2018-10-02 17:00:00 28 12 Nordeste 27 Este 0 -- -- 10
2018-10-02 16:00:00 27.6 13 Este 25 Norte 0 -- -- 12
2018-10-02 15:00:00 26.6 15 Nordeste 27 Nordeste 0 -- -- 19
2018-10-02 14:00:00 25.5 15 Este 30 Este 0 -- -- 20
2018-10-02 13:00:00 23.6 17 Este 31 Este 0 -- -- 22
2018-10-02 12:00:00 21.7 18 Este 30 Este 0 -- -- 28
2018-10-02 11:00:00 18.7 18 Este 29 Nordeste 0 -- -- 36
2018-10-02 10:00:00 15.2 22 Nordeste 33 Nordeste 0 -- -- 45
2018-10-02 09:00:00 12.6 24 Nordeste 33 Nordeste 0 -- -- 52
2018-10-02 08:00:00 13 22 Nordeste 39 Nordeste 0 -- -- 50
2018-10-02 07:00:00 14 24 Nordeste 31 Nordeste 0 -- -- 46
2018-10-02 06:00:00 15 25 Nordeste 34 Nordeste 0 -- -- 44
2018-10-02 05:00:00 15.6 24 Nordeste 35 Nordeste 0 -- -- 43
2018-10-02 04:00:00 16.8 24 Nordeste 35 Nordeste 0 -- -- 37
2018-10-02 03:00:00 17.7 24 Nordeste 35 Nordeste 0 -- -- 33
2018-10-02 02:00:00 18.4 24 Nordeste 35 Nordeste 0 -- -- 32
2018-10-02 01:00:00 19.1 28 Nordeste 39 Nordeste 0 -- -- 33
2018-10-02 00:00:00 19.9 27 Nordeste 38 Nordeste 0 -- -- 32
2018-10-01 23:00:00 21 26 Nordeste 34 Nordeste 0 -- -- 30
2018-10-01 22:00:00 22.1 24 Nordeste 33 Nordeste 0 -- -- 29
2018-10-01 21:00:00 22.9 15 Nordeste 27 Nordeste 0 -- -- 28
2018-10-01 20:00:00 25.6 13 Nordeste 24 Nordeste 0 -- -- 22
2018-10-01 19:00:00 28.4 14 Nordeste 27 Norte 0 -- -- 20
2018-10-01 18:00:00 29.2 13 Nordeste 27 Norte 0 -- -- 21
2018-10-01 17:00:00 29.5 12 Norte 24 Nordeste 0 -- -- 22
2018-10-01 16:00:00 29.3 14 Nordeste 27 Norte 0 -- -- 23
2018-10-01 15:00:00 28.5 18 Norte 28 Nordeste 0 -- -- 23
2018-10-01 14:00:00 27.4 17 Nordeste 31 Nordeste 0 -- -- 23
2018-10-01 13:00:00 25.3 21 Nordeste 29 Nordeste 0 -- -- 26
2018-10-01 12:00:00 22.9 22 Nordeste 33 Nordeste 0 -- -- 33
2018-10-01 11:00:00 20.6 27 Nordeste 37 Nordeste 0 -- -- 37
2018-10-01 10:00:00 19.4 20 Nordeste 28 Norte 0 -- -- 39
2018-10-01 09:00:00 17.3 16 Nordeste 22 Nordeste 0 -- -- 50
2018-10-01 08:00:00 17.6 12 Norte 20 Norte 0 -- -- 51
2018-10-01 07:00:00 18.3 11 Norte 18 Norte 0 -- -- 48
2018-10-01 06:00:00 18.8 18 Norte 20 Norte 0 -- -- 47
2018-10-01 05:00:00 18.4 14 Norte 18 Norte 0 -- -- 45
2018-10-01 04:00:00 19.3 17 Norte 21 Norte 0 -- -- 42
2018-10-01 03:00:00 21 13 Norte 26 Norte 0 -- -- 38
2018-10-01 02:00:00 23.4 23 Norte 36 Norte 0 -- -- 34
2018-10-01 01:00:00 24.6 30 Norte 41 Norte 0 -- -- 32
2018-10-01 00:00:00 22.4 15 Norte 21 Noroeste 0 -- -- 46
2018-09-30 23:00:00 25.1 15 Oeste 21 Oeste 0 -- -- 41
2018-09-30 22:00:00 25.7 16 Oeste 22 Oeste 0 -- -- 38
2018-09-30 21:00:00 26.4 15 Oeste 21 Oeste 0 -- -- 30
2018-09-30 20:00:00 28.9 9 Oeste 12 Oeste 0 -- -- 24
2018-09-30 19:00:00 31.1 7 Norte 18 Norte 0 -- -- 22
2018-09-30 18:00:00 31 16 Noroeste 27 Noroeste 0 -- -- 22
2018-09-30 17:00:00 32.1 13 Oeste 22 Noroeste 0 -- -- 22
2018-09-30 16:00:00 31.9 11 Norte 19 Oeste 0 -- -- 23
2018-09-30 15:00:00 31.3 8 Oeste 18 Sudoeste 0 -- -- 26
2018-09-30 14:00:00 29.6 8 Sudoeste 15 Oeste 0 -- -- 30
2018-09-30 13:00:00 28.5 6 Sudoeste 15 Sudoeste 0 -- -- 34
2018-09-30 12:00:00 26.7 5 Sudoeste 13 Sudoeste 0 -- -- 39
2018-09-30 11:00:00 24.3 0 Calma 6 Noroeste 0 -- -- 46
2018-09-30 10:00:00 21.3 4 Noroeste 5 Norte 0 -- -- 53
2018-09-30 09:00:00 18.4 5 Sudoeste 10 Sudoeste 0 -- -- 55
2018-09-30 08:00:00 17.8 8 Sur 9 Sur 0 -- -- 57
2018-09-30 07:00:00 18.1 5 Sur 9 Oeste 0 -- -- 53
2018-09-30 06:00:00 19.2 6 Oeste 9 Oeste 0 -- -- 57
2018-09-30 05:00:00 19.5 5 Oeste 10 Oeste 0 -- -- 58
2018-09-30 04:00:00 20.2 9 Oeste 12 Oeste 0 -- -- 56
2018-09-30 03:00:00 20.8 8 Oeste 10 Oeste 0 -- -- 46
2018-09-30 02:00:00 22.2 5 Oeste 11 Oeste 0 -- -- 44
2018-09-30 01:00:00 23 7 Sudoeste 12 Sudoeste 0 -- -- 38
2018-09-30 00:00:00 22.5 9 Sur 14 Sudoeste 0 -- -- 38
2018-09-29 23:00:00 23.6 12 Sudoeste 14 Sudoeste 0 -- -- 36
2018-09-29 22:00:00 25.7 10 Este 12 Sur 0 -- -- 29
2018-09-29 21:00:00 26.9 7 Nordeste 9 Nordeste 0 -- -- 26
2018-09-29 20:00:00 28.2 7 Nordeste 15 Norte 0 -- -- 23
2018-09-29 19:00:00 30.7 9 Nordeste 20 Nordeste 0 -- -- 20
2018-09-29 18:00:00 31.4 10 Nordeste 28 Este 0 -- -- 20
2018-09-29 17:00:00 32 9 Nordeste 23 Este 0 -- -- 21
2018-09-29 16:00:00 31.8 13 Norte 26 Nordeste 0 -- -- 21
2018-09-29 15:00:00 32.1 9 Sur 20 Sur 0 -- -- 22
2018-09-29 14:00:00 31.2 9 Sur 24 Sudeste 0 -- -- 23
2018-09-29 13:00:00 29.6 8 Sur 16 Sur 0 -- -- 27
2018-09-29 12:00:00 27.9 8 Sur 15 Sur 0 -- -- 30
2018-09-29 11:00:00 26.4 9 Sudeste 19 Sudeste 0 -- -- 31
2018-09-29 10:00:00 23.1 12 Sudeste 21 Este 0 -- -- 38
2018-09-29 09:00:00 19.5 10 Este 18 Sudeste 0 -- -- 47
2018-09-29 08:00:00 17.8 15 Este 18 Este 0 -- -- 57
2018-09-29 07:00:00 18.9 10 Sudeste 16 Este 0 -- -- 54
2018-09-29 06:00:00 19 11 Este 16 Este 0 -- -- 55
2018-09-29 05:00:00 20.8 10 Este 16 Nordeste 0 -- -- 49
2018-09-29 04:00:00 21.5 5 Nordeste 8 Norte 0 -- -- 47
2018-09-29 03:00:00 24.4 6 Sudeste 10 Sudeste 0 -- -- 39
2018-09-29 02:00:00 24.5 7 Sudeste 10 Sudeste 0 -- -- 39
2018-09-29 01:00:00 24.5 4 Nordeste 13 Oeste 0 -- -- 39
2018-09-29 00:00:00 26.6 0 Calma 4 Sudeste 0 -- -- 35
2018-09-28 23:00:00 26.6 3 Sur 4 Sudeste 0 -- -- 35
2018-09-28 22:00:00 26.6 3 Sur -- -- 0 -- -- 35
2018-09-28 21:00:00 27.7 3 Sudeste 6 Sudeste 0 -- -- 33
2018-09-28 20:00:00 29.8 3 Este 14 Este 0 -- -- 30
2018-09-28 19:00:00 30.9 8 Este 19 Este 0 -- -- 27
2018-09-28 18:00:00 31.4 4 Este 26 Nordeste 0 -- -- 28
2018-09-28 17:00:00 31.2 14 Nordeste 27 Nordeste 0 -- -- 27
2018-09-28 16:00:00 31.2 6 Oeste 25 Norte 0 -- -- 28
2018-09-28 15:00:00 30.8 12 Norte 22 Este 0 -- -- 32
2018-09-28 14:00:00 29.7 8 Oeste 18 Noroeste 0 -- -- 35
2018-09-28 13:00:00 28.9 6 Oeste 15 Noroeste 0 -- -- 36
2018-09-28 12:00:00 27.7 5 Norte 10 Sudoeste 0 -- -- 37
2018-09-28 11:00:00 25.8 7 Sudeste 13 Sur 0 -- -- 41
2018-09-28 10:00:00 21.6 4 Sudeste 8 Sur 0 -- -- 56
2018-09-28 09:00:00 19.5 6 Sur 10 Este 0 -- -- 61
2018-09-28 08:00:00 20.7 10 Este 11 Nordeste 0 -- -- 56
2018-09-28 07:00:00 21.5 6 Este 10 Nordeste 0 -- -- 54
2018-09-28 06:00:00 20.9 9 Nordeste 10 Nordeste 0 -- -- 59
2018-09-28 05:00:00 20.7 9 Nordeste 12 Nordeste 0 -- -- 59
2018-09-28 04:00:00 21.3 10 Nordeste 15 Nordeste 0 -- -- 58
2018-09-28 03:00:00 21.1 9 Este 16 Nordeste 0 -- -- 58
2018-09-28 02:00:00 21.6 13 Nordeste 17 Nordeste 0 -- -- 57
2018-09-28 01:00:00 23.1 16 Este 19 Este 0 -- -- 52
2018-09-28 00:00:00 23.5 16 Nordeste 21 Este 0 -- -- 52
2018-09-27 23:00:00 23.6 13 Nordeste 15 Nordeste 0 -- -- 50
2018-09-27 22:00:00 24.6 10 Nordeste 12 Nordeste 0 -- -- 46
2018-09-27 21:00:00 25.3 9 Nordeste 11 Nordeste 0 -- -- 45
2018-09-27 20:00:00 27.3 8 Nordeste 17 Nordeste 0 -- -- 40
2018-09-27 19:00:00 28.9 12 Nordeste 24 Este 0 -- -- 37
2018-09-27 18:00:00 29.6 12 Este 24 Este 0 -- -- 36
2018-09-27 17:00:00 29.9 11 Este 24 Este 0 -- -- 36
2018-09-27 16:00:00 29.5 12 Este 33 Este 0 -- -- 38
2018-09-27 15:00:00 28.4 16 Nordeste 30 Este 0 -- -- 42
2018-09-27 14:00:00 28 12 Sudeste 30 Este 0 -- -- 43
2018-09-27 13:00:00 26.5 15 Sudeste 32 Este 0 -- -- 47
2018-09-27 12:00:00 24.3 21 Este 35 Este 0 -- -- 54
2018-09-27 11:00:00 22.5 20 Este 34 Este 0 -- -- 60
2018-09-27 10:00:00 20.3 20 Este 37 Este 0 -- -- 68
2018-09-27 09:00:00 18.7 24 Este 36 Este 0 -- -- 74
2018-09-27 08:00:00 18.5 24 Este 38 Este 0 -- -- 74
2018-09-27 07:00:00 19 24 Este 34 Este 0 -- -- 72
2018-09-27 06:00:00 19.7 19 Este 26 Este 0 -- -- 74
2018-09-27 05:00:00 20.6 17 Este 24 Este 0 -- -- 74
2018-09-27 04:00:00 21.2 15 Nordeste 21 Nordeste 0 -- -- 74
2018-09-27 03:00:00 21.8 13 Este 18 Nordeste 0 -- -- 70
2018-09-27 02:00:00 21.3 9 Este 14 Este 0 -- -- 69
2018-09-27 01:00:00 22 7 Este 14 Sudeste 0 -- -- 66
2018-09-27 00:00:00 22.1 11 Este 31 Sudeste 0 -- -- 71
2018-09-26 23:00:00 23.4 22 Sudeste 42 Sudeste 0 -- -- 63
2018-09-26 22:00:00 24.5 19 Este 43 Este 0 -- -- 52
2018-09-26 21:00:00 25.1 27 Este 39 Este 0 -- -- 54
2018-09-26 20:00:00 26.2 24 Este 39 Este 0 -- -- 54
2018-09-26 19:00:00 27.1 28 Este 41 Este 0 -- -- 51
2018-09-26 18:00:00 27.6 32 Este 46 Este 0 -- -- 50
2018-09-26 17:00:00 26.7 24 Nordeste 33 Nordeste 0 -- -- 55
2018-09-26 16:00:00 26.1 18 Nordeste 33 Nordeste 0 -- -- 59
2018-09-26 15:00:00 24.8 21 Nordeste 31 Este 0 -- -- 63
2018-09-26 14:00:00 22.7 20 Nordeste 28 Nordeste 0 -- -- 74
2018-09-26 13:00:00 25.6 12 Este 27 Sudeste 0 -- -- 49
2018-09-26 12:00:00 25.1 14 Sudeste 26 Sudeste 0 -- -- 47
2018-09-26 11:00:00 22.8 16 Sudeste 31 Este 0 -- -- 56
2018-09-26 10:00:00 21.6 15 Este 33 Este 0 -- -- 66
2018-09-26 09:00:00 20.9 16 Este 31 Este 0 -- -- 70
2018-09-26 08:00:00 20.8 21 Este 34 Este 0 -- -- 71
2018-09-26 07:00:00 21.6 12 Este 29 Este 0 -- -- 64
2018-09-26 06:00:00 21.7 7 Este 18 Este 0 -- -- 48
2018-09-26 05:00:00 22.7 9 Este 10 Este 0 -- -- 43
2018-09-26 04:00:00 24 5 Sur 10 Este 0 -- -- 40
2018-09-26 03:00:00 23.7 3 Este 18 Sur 0 -- -- 39
2018-09-26 02:00:00 24.5 11 Este 26 Sur 0 -- -- 38
2018-09-26 01:00:00 24.6 14 Nordeste 18 Nordeste 0 -- -- 40
2018-09-26 00:00:00 26 17 Nordeste 19 Nordeste 0 -- -- 37
2018-09-25 23:00:00 27.8 12 Este 15 Este 0 -- -- 33
2018-09-25 22:00:00 28 13 Nordeste 17 Nordeste 0 -- -- 33
2018-09-25 21:00:00 29.7 11 Nordeste 12 Nordeste 0 -- -- 28
2018-09-25 20:00:00 32 7 Norte 15 Oeste 0 -- -- 26
2018-09-25 19:00:00 34.6 8 Noroeste 19 Oeste 0 -- -- 23
2018-09-25 18:00:00 35 6 Noroeste 17 Noroeste 0 -- -- 23
2018-09-25 17:00:00 35.3 7 Sudoeste 15 Sudeste 0 -- -- 22
2018-09-25 16:00:00 34.1 9 Nordeste 19 Sudeste 0 -- -- 25
2018-09-25 15:00:00 33.7 6 Nordeste 23 Este 0 -- -- 26
2018-09-25 14:00:00 32.1 9 Nordeste 24 Este 0 -- -- 30
2018-09-25 13:00:00 30.1 13 Nordeste 24 Este 0 -- -- 35
2018-09-25 12:00:00 28 15 Este 26 Este 0 -- -- 39
2018-09-25 11:00:00 25.7 17 Nordeste 23 Nordeste 0 -- -- 42
2018-09-25 10:00:00 22.1 12 Nordeste 32 Nordeste 0 -- -- 43
2018-09-25 09:00:00 20 26 Nordeste 36 Nordeste 0 -- -- 47
2018-09-25 08:00:00 20.1 24 Nordeste 31 Nordeste 0 -- -- 48
2018-09-25 07:00:00 19.9 17 Nordeste 21 Nordeste 0 -- -- 51
2018-09-25 06:00:00 20.4 13 Nordeste 23 Nordeste 0 -- -- 50
2018-09-25 05:00:00 22.2 19 Nordeste 34 Nordeste 0 -- -- 46
2018-09-25 04:00:00 22.8 24 Nordeste 31 Nordeste 0 -- -- 45
2018-09-25 03:00:00 23.4 20 Nordeste 29 Nordeste 0 -- -- 44
2018-09-25 02:00:00 24 18 Nordeste 27 Nordeste 0 -- -- 44
2018-09-25 01:00:00 25 21 Nordeste 26 Nordeste 0 -- -- 43
2018-09-25 00:00:00 25.7 18 Nordeste 23 Nordeste 0 -- -- 39
2018-09-24 23:00:00 27.9 16 Nordeste 21 Norte 0 -- -- 27
2018-09-24 22:00:00 30.4 4 Norte 10 Norte 0 -- -- 23
2018-09-24 21:00:00 30 9 Norte 10 Norte 0 -- -- 24
2018-09-24 20:00:00 32.5 8 Norte 15 Noroeste 0 -- -- 21
2018-09-24 19:00:00 34.9 9 Norte 20 Norte 0 -- -- 19
2018-09-24 18:00:00 35.7 8 Norte 18 Nordeste 0 -- -- 19
2018-09-24 17:00:00 35.6 10 Norte 21 Norte 0 -- -- 20
2018-09-24 16:00:00 35.5 8 Nordeste 25 Norte 0 -- -- 21
2018-09-24 15:00:00 35.3 10 Norte 26 Norte 0 -- -- 23
2018-09-24 14:00:00 34.3 15 Norte 30 Nordeste 0 -- -- 26
2018-09-24 13:00:00 32.4 19 Nordeste 41 Este 0 -- -- 28
2018-09-24 12:00:00 30.2 28 Este 42 Nordeste 0 -- -- 32
2018-09-24 11:00:00 28.1 29 Nordeste 40 Nordeste 0 -- -- 35
2018-09-24 10:00:00 25.3 25 Nordeste 37 Nordeste 0 -- -- 37
2018-09-24 09:00:00 23.1 20 Nordeste 27 Nordeste 0 -- -- 36
2018-09-24 08:00:00 22.4 19 Nordeste 23 Nordeste 0 -- -- 36
2018-09-24 07:00:00 22.2 15 Nordeste 18 Nordeste 0 -- -- 35
2018-09-24 06:00:00 22.4 16 Nordeste 19 Norte 0 -- -- 35
2018-09-24 05:00:00 23.3 16 Nordeste 23 Nordeste 0 -- -- 34
2018-09-24 04:00:00 23.7 19 Nordeste 26 Nordeste 0 -- -- 33
2018-09-24 03:00:00 24 18 Nordeste 23 Nordeste 0 -- -- 32
2018-09-24 02:00:00 24.2 17 Norte 20 Norte 0 -- -- 33
2018-09-24 01:00:00 25.4 17 Norte 21 Norte 0 -- -- 32
2018-09-24 00:00:00 25.5 14 Norte 17 Norte 0 -- -- 33
2018-09-23 23:00:00 27.7 14 Norte 28 Norte 0 -- -- 30
2018-09-23 22:00:00 30.8 2 Noroeste -- -- 0 -- -- 25
2018-09-23 21:00:00 31.5 0 Calma 4 Nordeste 0 -- -- 24
2018-09-23 20:00:00 33.2 4 Nordeste 13 Noroeste 0 -- -- 23
2018-09-23 19:00:00 35 7 Norte 15 Nordeste 0 -- -- 21
2018-09-23 18:00:00 35.3 6 Nordeste 29 Noroeste 0 -- -- 21
2018-09-23 17:00:00 35.5 4 Norte 26 Norte 0 -- -- 22
2018-09-23 16:00:00 35.3 9 Norte 23 Norte 0 -- -- 22
2018-09-23 15:00:00 35.1 13 Noroeste 27 Noroeste 0 -- -- 22
2018-09-23 14:00:00 34.8 6 Este 22 Este 0 -- -- 22
2018-09-23 13:00:00 33 8 Este 18 Nordeste 0 -- -- 25
2018-09-23 12:00:00 31.1 10 Nordeste 20 Este 0 -- -- 27
2018-09-23 11:00:00 28.5 10 Este 16 Este 0 -- -- 31
2018-09-23 10:00:00 25.1 9 Nordeste 15 Nordeste 0 -- -- 37
2018-09-23 09:00:00 21.7 13 Nordeste 14 Nordeste 0 -- -- 44
2018-09-23 08:00:00 20.9 9 Norte 10 Norte 0 -- -- 46
2018-09-23 07:00:00 21.7 7 Norte 9 Noroeste 0 -- -- 44
2018-09-23 06:00:00 22.2 2 Sur 15 Nordeste 0 -- -- 42
2018-09-23 05:00:00 23.3 15 Nordeste 21 Nordeste 0 -- -- 40
2018-09-23 04:00:00 23.9 19 Nordeste 24 Nordeste 0 -- -- 39
2018-09-23 03:00:00 24.5 18 Nordeste 23 Nordeste 0 -- -- 38
2018-09-23 02:00:00 24.9 18 Nordeste 23 Nordeste 0 -- -- 38
2018-09-23 01:00:00 26 17 Nordeste 22 Norte 0 -- -- 35
2018-09-23 00:00:00 28 13 Nordeste 16 Nordeste 0 -- -- 31
2018-09-22 23:00:00 27.7 15 Nordeste 17 Nordeste 0 -- -- 31
2018-09-22 22:00:00 27.9 15 Nordeste 18 Nordeste 0 -- -- 32
2018-09-22 21:00:00 29.3 12 Nordeste 14 Nordeste 0 -- -- 29
2018-09-22 20:00:00 31.9 10 Nordeste 17 Nordeste 0 -- -- 26
2018-09-22 19:00:00 34.4 5 Norte 12 Noroeste 0 -- -- 22
2018-09-22 18:00:00 34.8 4 Oeste 26 Oeste 0 -- -- 22
2018-09-22 17:00:00 35.1 8 Sudoeste 19 Sudoeste 0 -- -- 22
2018-09-22 16:00:00 35 9 Sudeste 24 Sur 0 -- -- 22
2018-09-22 15:00:00 34.2 6 Noroeste 22 Sudoeste 0 -- -- 24
2018-09-22 14:00:00 33.6 10 Sudeste 20 Sudeste 0 -- -- 25
2018-09-22 13:00:00 32 6 Este 14 Nordeste 0 -- -- 26
2018-09-22 12:00:00 30.5 6 Sudeste 12 Este 0 -- -- 29
2018-09-22 11:00:00 27.3 6 Este 12 Este 0 -- -- 32
2018-09-22 10:00:00 23.4 8 Nordeste 12 Nordeste 0 -- -- 36
2018-09-22 09:00:00 19.5 8 Norte 12 Nordeste 0 -- -- 41
2018-09-22 08:00:00 19.6 10 Nordeste 18 Nordeste 0 -- -- 40
2018-09-22 07:00:00 20.7 16 Nordeste 20 Nordeste 0 -- -- 38
2018-09-22 06:00:00 21.3 18 Nordeste 21 Nordeste 0 -- -- 36
2018-09-22 05:00:00 20.6 16 Nordeste 18 Nordeste 0 -- -- 37
2018-09-22 04:00:00 20.3 15 Norte 17 Norte 0 -- -- 38
2018-09-22 03:00:00 20.2 13 Norte 15 Norte 0 -- -- 40
2018-09-22 02:00:00 21.1 12 Norte 14 Norte 0 -- -- 39
2018-09-22 01:00:00 23.4 13 Nordeste 17 Nordeste 0 -- -- 35
2018-09-22 00:00:00 23.6 14 Nordeste 18 Nordeste 0 -- -- 35
2018-09-21 23:00:00 24.7 10 Norte 22 Norte 0 -- -- 35
2018-09-21 22:00:00 27.7 7 Norte 8 Norte 0 -- -- 27
2018-09-21 21:00:00 28.8 4 Norte 5 Norte 0 -- -- 26
2018-09-21 20:00:00 30.9 3 Norte 13 Noroeste 0 -- -- 24
2018-09-21 19:00:00 31.6 7 Oeste 16 Noroeste 0 -- -- 23
2018-09-21 18:00:00 32.2 7 Noroeste 21 Sudoeste 0 -- -- 23
2018-09-21 17:00:00 32.6 12 Sudoeste 22 Sudoeste 0 -- -- 23
2018-09-21 16:00:00 32.6 8 Sudoeste 22 Noroeste 0 -- -- 22
2018-09-21 15:00:00 32 10 Noroeste 20 Oeste 0 -- -- 23
2018-09-21 14:00:00 30.9 8 Noroeste 17 Norte 0 -- -- 25
2018-09-21 13:00:00 29.5 8 Norte 17 Norte 0 -- -- 27
2018-09-21 12:00:00 27.8 10 Norte 19 Nordeste 0 -- -- 30
2018-09-21 11:00:00 25.2 10 Nordeste 15 Nordeste 0 -- -- 33
2018-09-21 10:00:00 20.8 12 Noroeste 15 Noroeste 0 -- -- 44
2018-09-21 09:00:00 17.1 11 Noroeste 15 Noroeste 0 -- -- 55
2018-09-21 08:00:00 16.4 15 Noroeste 18 Noroeste 0 -- -- 57
2018-09-21 07:00:00 18.4 8 Noroeste 10 Noroeste 0 -- -- 49
2018-09-21 06:00:00 17.6 10 Noroeste 13 Noroeste 0 -- -- 54
2018-09-21 05:00:00 17.8 12 Noroeste 17 Norte 0 -- -- 57
2018-09-21 04:00:00 19.3 15 Norte 19 Norte 0 -- -- 52
2018-09-21 03:00:00 19.4 12 Noroeste 13 Noroeste 0 -- -- 51
2018-09-21 02:00:00 20.4 8 Norte 12 Noroeste 0 -- -- 45
2018-09-21 01:00:00 21.6 11 Noroeste 14 Noroeste 0 -- -- 42
2018-09-21 00:00:00 22.4 12 Noroeste 15 Noroeste 0 -- -- 37
2018-09-20 23:00:00 23.9 13 Noroeste 26 Noroeste 0 -- -- 34
2018-09-20 22:00:00 26 19 Noroeste 28 Oeste 0 -- -- 35
2018-09-20 21:00:00 27.9 23 Oeste 33 Oeste 0 -- -- 34
2018-09-20 20:00:00 30.9 19 Noroeste 27 Oeste 0 -- -- 29
2018-09-20 19:00:00 32.9 15 Oeste 24 Noroeste 0 -- -- 26
2018-09-20 18:00:00 33.3 14 Oeste 24 Oeste 0 -- -- 26
2018-09-20 17:00:00 33.9 13 Oeste 26 Oeste 0 -- -- 26
2018-09-20 16:00:00 33.4 16 Oeste 27 Oeste 0 -- -- 27
2018-09-20 15:00:00 33.4 5 Noroeste 17 Sudoeste 0 -- -- 27
2018-09-20 14:00:00 32.4 5 Este 12 Este 0 -- -- 27
2018-09-20 13:00:00 31.8 4 Sur 13 Sudeste 0 -- -- 26
2018-09-20 12:00:00 29.7 8 Sur 15 Sudeste 0 -- -- 31
2018-09-20 11:00:00 27.1 6 Este 13 Este 0 -- -- 36
2018-09-20 10:00:00 23.4 9 Nordeste 13 Nordeste 0 -- -- 44
2018-09-20 09:00:00 19 7 Norte 11 Norte 0 -- -- 56
2018-09-20 08:00:00 18 10 Norte 11 Norte 0 -- -- 59
2018-09-20 07:00:00 19.3 10 Norte 12 Norte 0 -- -- 53
2018-09-20 06:00:00 20.2 10 Norte 13 Noroeste 0 -- -- 52
2018-09-20 05:00:00 20.2 10 Noroeste 11 Noroeste 0 -- -- 53
2018-09-20 04:00:00 21.4 9 Norte -- -- 0 -- -- 50
2018-09-20 03:00:00 21.8 9 Noroeste 12 Noroeste 0 -- -- 47
2018-09-20 02:00:00 22.4 12 Noroeste 14 Noroeste 0 -- -- 46
2018-09-20 01:00:00 23.1 12 Noroeste 14 Noroeste 0 -- -- 42
2018-09-20 00:00:00 24 12 Noroeste 13 Noroeste 0 -- -- 36